sensor_id;sensor_type;location;lat;lon;timestamp;P1;durP1;ratioP1;P2;durP2;ratioP2
9248;SDS011;4660;41.768;26.198;2024-02-14T00:01:15;2.90;;;2.33;;
9248;SDS011;4660;41.768;26.198;2024-02-14T00:03:41;2.47;;;2.27;;
9248;SDS011;4660;41.768;26.198;2024-02-14T00:06:07;2.30;;;2.10;;
9248;SDS011;4660;41.768;26.198;2024-02-14T00:08:33;2.17;;;2.00;;
9248;SDS011;4660;41.768;26.198;2024-02-14T00:10:58;2.80;;;2.20;;
9248;SDS011;4660;41.768;26.198;2024-02-14T00:13:25;2.40;;;2.20;;
9248;SDS011;4660;41.768;26.198;2024-02-14T00:15:51;2.30;;;2.10;;
9248;SDS011;4660;41.768;26.198;2024-02-14T00:18:16;2.50;;;2.30;;
9248;SDS011;4660;41.768;26.198;2024-02-14T00:20:42;2.63;;;2.20;;
9248;SDS011;4660;41.768;26.198;2024-02-14T00:23:07;2.80;;;2.37;;
9248;SDS011;4660;41.768;26.198;2024-02-14T00:25:33;2.60;;;2.40;;
9248;SDS011;4660;41.768;26.198;2024-02-14T00:27:59;2.80;;;2.60;;
9248;SDS011;4660;41.768;26.198;2024-02-14T00:30:28;4.47;;;3.50;;
9248;SDS011;4660;41.768;26.198;2024-02-14T00:32:55;3.50;;;3.20;;
9248;SDS011;4660;41.768;26.198;2024-02-14T00:35:20;4.17;;;3.77;;
9248;SDS011;4660;41.768;26.198;2024-02-14T00:37:46;3.70;;;3.30;;
9248;SDS011;4660;41.768;26.198;2024-02-14T00:40:12;3.97;;;3.57;;
9248;SDS011;4660;41.768;26.198;2024-02-14T00:42:37;3.83;;;3.43;;
9248;SDS011;4660;41.768;26.198;2024-02-14T00:45:03;3.47;;;3.17;;
9248;SDS011;4660;41.768;26.198;2024-02-14T00:47:32;3.60;;;3.30;;
9248;SDS011;4660;41.768;26.198;2024-02-14T00:49:58;3.90;;;3.60;;
9248;SDS011;4660;41.768;26.198;2024-02-14T00:52:23;3.40;;;3.10;;
9248;SDS011;4660;41.768;26.198;2024-02-14T00:54:49;3.63;;;3.33;;
9248;SDS011;4660;41.768;26.198;2024-02-14T00:57:14;3.37;;;3.07;;
9248;SDS011;4660;41.768;26.198;2024-02-14T00:59:40;3.43;;;3.13;;
9248;SDS011;4660;41.768;26.198;2024-02-14T01:02:06;3.63;;;3.33;;
9248;SDS011;4660;41.768;26.198;2024-02-14T01:04:32;3.40;;;3.10;;
9248;SDS011;4660;41.768;26.198;2024-02-14T01:06:57;4.33;;;2.90;;
9248;SDS011;4660;41.768;26.198;2024-02-14T01:09:23;3.77;;;3.13;;
9248;SDS011;4660;41.768;26.198;2024-02-14T01:11:49;3.57;;;3.27;;
9248;SDS011;4660;41.768;26.198;2024-02-14T01:14:15;3.90;;;3.60;;
9248;SDS011;4660;41.768;26.198;2024-02-14T01:16:44;4.60;;;3.20;;
9248;SDS011;4660;41.768;26.198;2024-02-14T01:19:10;5.30;;;3.10;;
9248;SDS011;4660;41.768;26.198;2024-02-14T01:21:36;2.67;;;2.47;;
9248;SDS011;4660;41.768;26.198;2024-02-14T01:24:02;3.20;;;2.90;;
9248;SDS011;4660;41.768;26.198;2024-02-14T01:26:30;3.30;;;2.93;;
9248;SDS011;4660;41.768;26.198;2024-02-14T01:28:56;3.17;;;2.80;;
9248;SDS011;4660;41.768;26.198;2024-02-14T01:31:21;3.30;;;3.00;;
9248;SDS011;4660;41.768;26.198;2024-02-14T01:33:47;3.17;;;2.90;;
9248;SDS011;4660;41.768;26.198;2024-02-14T01:36:13;3.00;;;2.70;;
9248;SDS011;4660;41.768;26.198;2024-02-14T01:38:38;3.00;;;2.70;;
9248;SDS011;4660;41.768;26.198;2024-02-14T01:41:05;3.60;;;3.20;;
9248;SDS011;4660;41.768;26.198;2024-02-14T01:43:30;3.13;;;2.83;;
9248;SDS011;4660;41.768;26.198;2024-02-14T01:46:02;3.40;;;3.10;;
9248;SDS011;4660;41.768;26.198;2024-02-14T01:48:30;3.70;;;3.33;;
9248;SDS011;4660;41.768;26.198;2024-02-14T01:50:56;3.53;;;3.23;;
9248;SDS011;4660;41.768;26.198;2024-02-14T01:53:22;4.40;;;3.43;;
9248;SDS011;4660;41.768;26.198;2024-02-14T01:55:48;3.53;;;3.23;;
9248;SDS011;4660;41.768;26.198;2024-02-14T01:58:14;5.23;;;3.67;;
9248;SDS011;4660;41.768;26.198;2024-02-14T02:00:39;5.83;;;3.63;;
9248;SDS011;4660;41.768;26.198;2024-02-14T02:03:05;4.20;;;3.50;;
9248;SDS011;4660;41.768;26.198;2024-02-14T02:05:30;3.90;;;3.47;;
9248;SDS011;4660;41.768;26.198;2024-02-14T02:07:56;3.57;;;3.27;;
9248;SDS011;4660;41.768;26.198;2024-02-14T02:10:22;3.40;;;3.10;;
9248;SDS011;4660;41.768;26.198;2024-02-14T02:12:48;3.70;;;3.30;;
9248;SDS011;4660;41.768;26.198;2024-02-14T02:15:15;3.60;;;3.20;;
9248;SDS011;4660;41.768;26.198;2024-02-14T02:17:41;5.57;;;4.00;;
9248;SDS011;4660;41.768;26.198;2024-02-14T02:20:07;4.17;;;3.23;;
9248;SDS011;4660;41.768;26.198;2024-02-14T02:22:34;3.27;;;2.83;;
9248;SDS011;4660;41.768;26.198;2024-02-14T02:25:02;2.97;;;2.67;;
9248;SDS011;4660;41.768;26.198;2024-02-14T02:27:32;3.53;;;2.77;;
9248;SDS011;4660;41.768;26.198;2024-02-14T02:30:02;2.53;;;2.33;;
9248;SDS011;4660;41.768;26.198;2024-02-14T02:32:31;2.37;;;2.17;;
9248;SDS011;4660;41.768;26.198;2024-02-14T02:34:57;2.80;;;2.47;;
9248;SDS011;4660;41.768;26.198;2024-02-14T02:37:23;2.60;;;2.40;;
9248;SDS011;4660;41.768;26.198;2024-02-14T02:39:49;2.67;;;2.47;;
9248;SDS011;4660;41.768;26.198;2024-02-14T02:42:16;2.90;;;2.30;;
9248;SDS011;4660;41.768;26.198;2024-02-14T02:44:45;2.43;;;2.23;;
9248;SDS011;4660;41.768;26.198;2024-02-14T02:47:12;3.73;;;2.67;;
9248;SDS011;4660;41.768;26.198;2024-02-14T02:49:37;3.10;;;2.40;;
9248;SDS011;4660;41.768;26.198;2024-02-14T02:52:03;2.40;;;2.20;;
9248;SDS011;4660;41.768;26.198;2024-02-14T02:54:29;2.60;;;2.40;;
9248;SDS011;4660;41.768;26.198;2024-02-14T02:56:54;2.60;;;2.40;;
9248;SDS011;4660;41.768;26.198;2024-02-14T02:59:20;2.20;;;2.00;;
9248;SDS011;4660;41.768;26.198;2024-02-14T03:01:47;2.50;;;2.30;;
9248;SDS011;4660;41.768;26.198;2024-02-14T03:04:14;2.23;;;2.03;;
9248;SDS011;4660;41.768;26.198;2024-02-14T03:06:40;2.63;;;2.43;;
9248;SDS011;4660;41.768;26.198;2024-02-14T03:09:08;2.60;;;2.40;;
9248;SDS011;4660;41.768;26.198;2024-02-14T03:11:34;2.83;;;2.60;;
9248;SDS011;4660;41.768;26.198;2024-02-14T03:14:00;5.67;;;2.50;;
9248;SDS011;4660;41.768;26.198;2024-02-14T03:16:27;4.00;;;2.30;;
9248;SDS011;4660;41.768;26.198;2024-02-14T03:18:52;3.00;;;2.63;;
9248;SDS011;4660;41.768;26.198;2024-02-14T03:21:19;2.80;;;2.50;;
9248;SDS011;4660;41.768;26.198;2024-02-14T03:23:45;2.77;;;2.57;;
9248;SDS011;4660;41.768;26.198;2024-02-14T03:26:10;3.00;;;2.80;;
9248;SDS011;4660;41.768;26.198;2024-02-14T03:28:36;3.93;;;3.00;;
9248;SDS011;4660;41.768;26.198;2024-02-14T03:31:01;4.03;;;2.80;;
9248;SDS011;4660;41.768;26.198;2024-02-14T03:33:27;3.27;;;2.83;;
9248;SDS011;4660;41.768;26.198;2024-02-14T03:35:54;3.20;;;2.90;;
9248;SDS011;4660;41.768;26.198;2024-02-14T03:38:26;3.53;;;3.23;;
9248;SDS011;4660;41.768;26.198;2024-02-14T03:40:52;3.07;;;2.73;;
9248;SDS011;4660;41.768;26.198;2024-02-14T03:43:19;4.17;;;3.27;;
9248;SDS011;4660;41.768;26.198;2024-02-14T03:45:45;3.67;;;2.90;;
9248;SDS011;4660;41.768;26.198;2024-02-14T03:48:11;2.67;;;2.27;;
9248;SDS011;4660;41.768;26.198;2024-02-14T03:50:40;2.67;;;2.47;;
9248;SDS011;4660;41.768;26.198;2024-02-14T03:53:05;3.30;;;2.30;;
9248;SDS011;4660;41.768;26.198;2024-02-14T03:55:31;2.50;;;2.30;;
9248;SDS011;4660;41.768;26.198;2024-02-14T03:57:57;3.13;;;2.87;;
9248;SDS011;4660;41.768;26.198;2024-02-14T04:00:22;3.20;;;2.90;;
9248;SDS011;4660;41.768;26.198;2024-02-14T04:02:48;2.60;;;2.40;;
9248;SDS011;4660;41.768;26.198;2024-02-14T04:05:14;3.27;;;2.80;;
9248;SDS011;4660;41.768;26.198;2024-02-14T04:07:40;3.50;;;3.20;;
9248;SDS011;4660;41.768;26.198;2024-02-14T04:10:05;2.97;;;2.67;;
9248;SDS011;4660;41.768;26.198;2024-02-14T04:12:31;3.33;;;3.03;;
9248;SDS011;4660;41.768;26.198;2024-02-14T04:14:57;3.30;;;3.00;;
9248;SDS011;4660;41.768;26.198;2024-02-14T04:17:23;3.33;;;3.03;;
9248;SDS011;4660;41.768;26.198;2024-02-14T04:19:49;3.37;;;2.90;;
9248;SDS011;4660;41.768;26.198;2024-02-14T04:22:15;3.27;;;2.97;;
9248;SDS011;4660;41.768;26.198;2024-02-14T04:24:41;3.67;;;3.00;;
9248;SDS011;4660;41.768;26.198;2024-02-14T04:27:07;2.90;;;2.67;;
9248;SDS011;4660;41.768;26.198;2024-02-14T04:29:32;3.30;;;2.97;;
9248;SDS011;4660;41.768;26.198;2024-02-14T04:32:01;3.30;;;3.00;;
9248;SDS011;4660;41.768;26.198;2024-02-14T04:34:27;2.97;;;2.70;;
9248;SDS011;4660;41.768;26.198;2024-02-14T04:36:53;3.43;;;3.13;;
9248;SDS011;4660;41.768;26.198;2024-02-14T04:39:18;3.30;;;3.00;;
9248;SDS011;4660;41.768;26.198;2024-02-14T04:41:44;2.90;;;2.70;;
9248;SDS011;4660;41.768;26.198;2024-02-14T04:44:09;3.40;;;3.10;;
9248;SDS011;4660;41.768;26.198;2024-02-14T04:46:35;5.30;;;3.00;;
9248;SDS011;4660;41.768;26.198;2024-02-14T04:49:02;3.47;;;3.20;;
9248;SDS011;4660;41.768;26.198;2024-02-14T04:51:31;3.10;;;2.80;;
9248;SDS011;4660;41.768;26.198;2024-02-14T04:53:57;3.70;;;3.27;;
9248;SDS011;4660;41.768;26.198;2024-02-14T04:56:26;4.40;;;3.10;;
9248;SDS011;4660;41.768;26.198;2024-02-14T04:58:52;3.37;;;3.07;;
9248;SDS011;4660;41.768;26.198;2024-02-14T05:01:21;3.20;;;2.90;;
9248;SDS011;4660;41.768;26.198;2024-02-14T05:03:46;3.00;;;2.70;;
9248;SDS011;4660;41.768;26.198;2024-02-14T05:06:13;2.80;;;2.50;;
9248;SDS011;4660;41.768;26.198;2024-02-14T05:08:39;2.70;;;2.30;;
9248;SDS011;4660;41.768;26.198;2024-02-14T05:11:04;5.47;;;3.20;;
9248;SDS011;4660;41.768;26.198;2024-02-14T05:13:30;3.07;;;2.67;;
9248;SDS011;4660;41.768;26.198;2024-02-14T05:15:56;4.93;;;2.60;;
9248;SDS011;4660;41.768;26.198;2024-02-14T05:18:22;3.17;;;2.57;;
9248;SDS011;4660;41.768;26.198;2024-02-14T05:20:47;3.10;;;2.73;;
9248;SDS011;4660;41.768;26.198;2024-02-14T05:23:14;2.53;;;2.33;;
9248;SDS011;4660;41.768;26.198;2024-02-14T05:25:42;2.57;;;2.37;;
9248;SDS011;4660;41.768;26.198;2024-02-14T05:28:09;2.83;;;2.37;;
9248;SDS011;4660;41.768;26.198;2024-02-14T05:30:38;3.27;;;2.70;;
9248;SDS011;4660;41.768;26.198;2024-02-14T05:33:04;3.30;;;2.67;;
9248;SDS011;4660;41.768;26.198;2024-02-14T05:35:30;3.40;;;2.60;;
9248;SDS011;4660;41.768;26.198;2024-02-14T05:37:56;2.73;;;2.50;;
9248;SDS011;4660;41.768;26.198;2024-02-14T05:40:21;2.90;;;2.70;;
9248;SDS011;4660;41.768;26.198;2024-02-14T05:42:47;2.73;;;2.53;;
9248;SDS011;4660;41.768;26.198;2024-02-14T05:45:12;3.40;;;2.57;;
9248;SDS011;4660;41.768;26.198;2024-02-14T05:47:38;3.60;;;3.00;;
9248;SDS011;4660;41.768;26.198;2024-02-14T05:50:04;4.03;;;3.43;;
9248;SDS011;4660;41.768;26.198;2024-02-14T05:52:30;2.47;;;2.27;;
9248;SDS011;4660;41.768;26.198;2024-02-14T05:54:56;2.80;;;2.60;;
9248;SDS011;4660;41.768;26.198;2024-02-14T05:57:21;2.60;;;2.40;;
9248;SDS011;4660;41.768;26.198;2024-02-14T05:59:48;4.20;;;2.63;;
9248;SDS011;4660;41.768;26.198;2024-02-14T06:02:13;3.07;;;1.90;;
9248;SDS011;4660;41.768;26.198;2024-02-14T06:04:39;1.97;;;1.87;;
9248;SDS011;4660;41.768;26.198;2024-02-14T06:07:04;3.10;;;2.30;;
9248;SDS011;4660;41.768;26.198;2024-02-14T06:09:32;2.30;;;2.10;;
9248;SDS011;4660;41.768;26.198;2024-02-14T06:11:57;2.37;;;2.03;;
9248;SDS011;4660;41.768;26.198;2024-02-14T06:14:23;12.23;;;6.57;;
9248;SDS011;4660;41.768;26.198;2024-02-14T06:16:48;5.03;;;3.07;;
9248;SDS011;4660;41.768;26.198;2024-02-14T06:19:14;2.90;;;2.60;;
9248;SDS011;4660;41.768;26.198;2024-02-14T06:21:39;3.90;;;2.90;;
9248;SDS011;4660;41.768;26.198;2024-02-14T06:24:05;3.10;;;2.70;;
9248;SDS011;4660;41.768;26.198;2024-02-14T06:26:31;3.13;;;2.63;;
9248;SDS011;4660;41.768;26.198;2024-02-14T06:28:58;5.40;;;3.27;;
9248;SDS011;4660;41.768;26.198;2024-02-14T06:31:24;5.20;;;3.53;;
9248;SDS011;4660;41.768;26.198;2024-02-14T06:33:49;4.97;;;3.97;;
9248;SDS011;4660;41.768;26.198;2024-02-14T06:36:15;3.90;;;3.00;;
9248;SDS011;4660;41.768;26.198;2024-02-14T06:38:40;3.53;;;2.90;;
9248;SDS011;4660;41.768;26.198;2024-02-14T06:41:06;2.50;;;2.30;;
9248;SDS011;4660;41.768;26.198;2024-02-14T06:43:32;3.07;;;2.77;;
9248;SDS011;4660;41.768;26.198;2024-02-14T06:45:57;5.97;;;2.60;;
9248;SDS011;4660;41.768;26.198;2024-02-14T06:48:23;2.73;;;2.53;;
9248;SDS011;4660;41.768;26.198;2024-02-14T06:50:50;3.30;;;2.70;;
9248;SDS011;4660;41.768;26.198;2024-02-14T06:53:17;4.33;;;3.57;;
9248;SDS011;4660;41.768;26.198;2024-02-14T06:55:43;2.73;;;2.40;;
9248;SDS011;4660;41.768;26.198;2024-02-14T06:58:08;3.07;;;2.77;;
9248;SDS011;4660;41.768;26.198;2024-02-14T07:00:34;2.90;;;2.57;;
9248;SDS011;4660;41.768;26.198;2024-02-14T07:02:59;3.87;;;2.87;;
9248;SDS011;4660;41.768;26.198;2024-02-14T07:05:25;2.40;;;2.20;;
9248;SDS011;4660;41.768;26.198;2024-02-14T07:07:52;3.47;;;2.90;;
9248;SDS011;4660;41.768;26.198;2024-02-14T07:10:18;2.43;;;2.23;;
9248;SDS011;4660;41.768;26.198;2024-02-14T07:12:44;3.30;;;2.67;;
9248;SDS011;4660;41.768;26.198;2024-02-14T07:15:09;3.93;;;3.20;;
9248;SDS011;4660;41.768;26.198;2024-02-14T07:17:35;2.13;;;2.03;;
9248;SDS011;4660;41.768;26.198;2024-02-14T07:20:01;2.13;;;2.00;;
9248;SDS011;4660;41.768;26.198;2024-02-14T07:22:27;2.20;;;2.00;;
9248;SDS011;4660;41.768;26.198;2024-02-14T07:24:59;2.83;;;2.27;;
9248;SDS011;4660;41.768;26.198;2024-02-14T07:27:25;2.67;;;2.37;;
9248;SDS011;4660;41.768;26.198;2024-02-14T07:29:51;3.37;;;2.03;;
9248;SDS011;4660;41.768;26.198;2024-02-14T07:32:16;2.30;;;2.10;;
9248;SDS011;4660;41.768;26.198;2024-02-14T07:34:42;2.73;;;2.53;;
9248;SDS011;4660;41.768;26.198;2024-02-14T07:37:08;2.60;;;2.30;;
9248;SDS011;4660;41.768;26.198;2024-02-14T07:39:34;3.43;;;2.77;;
9248;SDS011;4660;41.768;26.198;2024-02-14T07:42:00;2.77;;;2.47;;
9248;SDS011;4660;41.768;26.198;2024-02-14T07:44:27;3.27;;;2.30;;
9248;SDS011;4660;41.768;26.198;2024-02-14T07:46:52;3.27;;;2.50;;
9248;SDS011;4660;41.768;26.198;2024-02-14T07:49:18;2.80;;;2.50;;
9248;SDS011;4660;41.768;26.198;2024-02-14T07:51:44;4.20;;;2.10;;
9248;SDS011;4660;41.768;26.198;2024-02-14T07:54:10;2.40;;;2.20;;
9248;SDS011;4660;41.768;26.198;2024-02-14T07:56:36;2.67;;;2.47;;
9248;SDS011;4660;41.768;26.198;2024-02-14T07:59:01;4.03;;;2.63;;
9248;SDS011;4660;41.768;26.198;2024-02-14T08:01:27;2.97;;;2.67;;
9248;SDS011;4660;41.768;26.198;2024-02-14T08:03:53;4.13;;;2.90;;
9248;SDS011;4660;41.768;26.198;2024-02-14T08:06:19;2.83;;;2.63;;
9248;SDS011;4660;41.768;26.198;2024-02-14T08:08:45;2.67;;;2.47;;
9248;SDS011;4660;41.768;26.198;2024-02-14T08:11:11;6.80;;;3.80;;
9248;SDS011;4660;41.768;26.198;2024-02-14T08:13:37;5.17;;;2.83;;
9248;SDS011;4660;41.768;26.198;2024-02-14T08:16:05;4.47;;;3.73;;
9248;SDS011;4660;41.768;26.198;2024-02-14T08:18:32;2.77;;;2.30;;
9248;SDS011;4660;41.768;26.198;2024-02-14T08:20:58;3.60;;;2.60;;
9248;SDS011;4660;41.768;26.198;2024-02-14T08:23:24;2.47;;;2.27;;
9248;SDS011;4660;41.768;26.198;2024-02-14T08:25:50;2.90;;;2.33;;
9248;SDS011;4660;41.768;26.198;2024-02-14T08:28:15;2.60;;;2.37;;
9248;SDS011;4660;41.768;26.198;2024-02-14T08:30:43;2.27;;;2.07;;
9248;SDS011;4660;41.768;26.198;2024-02-14T08:33:13;4.03;;;2.23;;
9248;SDS011;4660;41.768;26.198;2024-02-14T08:35:41;2.80;;;2.20;;
9248;SDS011;4660;41.768;26.198;2024-02-14T08:38:08;1.80;;;1.70;;
9248;SDS011;4660;41.768;26.198;2024-02-14T08:40:34;2.20;;;1.23;;
9248;SDS011;4660;41.768;26.198;2024-02-14T08:42:59;4.17;;;1.67;;
9248;SDS011;4660;41.768;26.198;2024-02-14T08:45:26;7.17;;;4.03;;
9248;SDS011;4660;41.768;26.198;2024-02-14T08:47:55;5.00;;;2.80;;
9248;SDS011;4660;41.768;26.198;2024-02-14T08:50:20;3.03;;;1.80;;
9248;SDS011;4660;41.768;26.198;2024-02-14T08:52:46;2.43;;;1.80;;
9248;SDS011;4660;41.768;26.198;2024-02-14T08:55:12;1.80;;;1.33;;
9248;SDS011;4660;41.768;26.198;2024-02-14T08:57:42;4.07;;;1.70;;
9248;SDS011;4660;41.768;26.198;2024-02-14T09:00:08;2.87;;;2.10;;
9248;SDS011;4660;41.768;26.198;2024-02-14T09:02:35;1.47;;;1.30;;
9248;SDS011;4660;41.768;26.198;2024-02-14T09:05:02;3.73;;;2.33;;
9248;SDS011;4660;41.768;26.198;2024-02-14T09:07:32;3.93;;;2.13;;
9248;SDS011;4660;41.768;26.198;2024-02-14T09:09:59;2.10;;;1.90;;
9248;SDS011;4660;41.768;26.198;2024-02-14T09:12:25;1.47;;;1.37;;
9248;SDS011;4660;41.768;26.198;2024-02-14T09:14:53;2.97;;;1.97;;
9248;SDS011;4660;41.768;26.198;2024-02-14T09:17:19;3.90;;;2.23;;
9248;SDS011;4660;41.768;26.198;2024-02-14T09:19:45;3.23;;;2.03;;
9248;SDS011;4660;41.768;26.198;2024-02-14T09:22:10;3.00;;;1.87;;
9248;SDS011;4660;41.768;26.198;2024-02-14T09:24:39;4.17;;;2.40;;
9248;SDS011;4660;41.768;26.198;2024-02-14T09:27:05;8.77;;;2.80;;
9248;SDS011;4660;41.768;26.198;2024-02-14T09:29:30;5.03;;;2.63;;
9248;SDS011;4660;41.768;26.198;2024-02-14T09:31:57;8.67;;;4.87;;
9248;SDS011;4660;41.768;26.198;2024-02-14T09:34:23;4.47;;;2.30;;
9248;SDS011;4660;41.768;26.198;2024-02-14T09:36:51;1.77;;;1.53;;
9248;SDS011;4660;41.768;26.198;2024-02-14T09:39:18;5.47;;;3.33;;
9248;SDS011;4660;41.768;26.198;2024-02-14T09:41:44;9.13;;;4.40;;
9248;SDS011;4660;41.768;26.198;2024-02-14T09:44:16;1.50;;;0.93;;
9248;SDS011;4660;41.768;26.198;2024-02-14T09:46:42;1.17;;;1.10;;
9248;SDS011;4660;41.768;26.198;2024-02-14T09:49:08;1.37;;;1.00;;
9248;SDS011;4660;41.768;26.198;2024-02-14T09:51:35;1.37;;;1.10;;
9248;SDS011;4660;41.768;26.198;2024-02-14T09:54:02;2.97;;;1.70;;
9248;SDS011;4660;41.768;26.198;2024-02-14T09:56:29;6.50;;;3.17;;
9248;SDS011;4660;41.768;26.198;2024-02-14T09:58:56;3.63;;;2.13;;
9248;SDS011;4660;41.768;26.198;2024-02-14T10:01:25;2.73;;;1.70;;
9248;SDS011;4660;41.768;26.198;2024-02-14T10:03:52;3.10;;;1.60;;
9248;SDS011;4660;41.768;26.198;2024-02-14T10:06:19;1.30;;;1.20;;
9248;SDS011;4660;41.768;26.198;2024-02-14T10:08:46;2.03;;;1.40;;
9248;SDS011;4660;41.768;26.198;2024-02-14T10:11:19;1.30;;;1.00;;
9248;SDS011;4660;41.768;26.198;2024-02-14T10:13:49;0.90;;;0.90;;
9248;SDS011;4660;41.768;26.198;2024-02-14T10:16:17;0.90;;;0.90;;
9248;SDS011;4660;41.768;26.198;2024-02-14T10:18:46;1.93;;;1.57;;
9248;SDS011;4660;41.768;26.198;2024-02-14T10:21:15;3.27;;;1.13;;
9248;SDS011;4660;41.768;26.198;2024-02-14T10:23:43;1.50;;;1.40;;
9248;SDS011;4660;41.768;26.198;2024-02-14T10:26:10;1.23;;;1.00;;
9248;SDS011;4660;41.768;26.198;2024-02-14T10:28:36;2.87;;;2.30;;
9248;SDS011;4660;41.768;26.198;2024-02-14T10:31:02;3.30;;;1.70;;
9248;SDS011;4660;41.768;26.198;2024-02-14T10:33:31;1.90;;;1.80;;
9248;SDS011;4660;41.768;26.198;2024-02-14T10:35:58;1.50;;;1.40;;
9248;SDS011;4660;41.768;26.198;2024-02-14T10:38:26;4.57;;;2.83;;
9248;SDS011;4660;41.768;26.198;2024-02-14T10:41:01;3.00;;;2.13;;
9248;SDS011;4660;41.768;26.198;2024-02-14T10:43:27;1.40;;;1.30;;
9248;SDS011;4660;41.768;26.198;2024-02-14T10:45:54;2.73;;;2.33;;
9248;SDS011;4660;41.768;26.198;2024-02-14T10:48:22;3.27;;;2.30;;
9248;SDS011;4660;41.768;26.198;2024-02-14T10:50:54;4.50;;;3.00;;
9248;SDS011;4660;41.768;26.198;2024-02-14T10:53:23;3.83;;;2.67;;
9248;SDS011;4660;41.768;26.198;2024-02-14T10:55:54;2.37;;;2.17;;
9248;SDS011;4660;41.768;26.198;2024-02-14T10:58:23;2.87;;;2.10;;
9248;SDS011;4660;41.768;26.198;2024-02-14T11:00:50;3.43;;;1.43;;
9248;SDS011;4660;41.768;26.198;2024-02-14T11:03:16;3.90;;;1.97;;
9248;SDS011;4660;41.768;26.198;2024-02-14T11:05:43;4.50;;;2.07;;
9248;SDS011;4660;41.768;26.198;2024-02-14T11:08:14;3.00;;;1.60;;
9248;SDS011;4660;41.768;26.198;2024-02-14T11:10:54;5.07;;;2.17;;
9248;SDS011;4660;41.768;26.198;2024-02-14T11:13:28;3.30;;;2.40;;
9248;SDS011;4660;41.768;26.198;2024-02-14T11:15:56;2.80;;;2.03;;
9248;SDS011;4660;41.768;26.198;2024-02-14T11:18:25;1.77;;;1.67;;
9248;SDS011;4660;41.768;26.198;2024-02-14T11:20:56;3.73;;;2.20;;
9248;SDS011;4660;41.768;26.198;2024-02-14T11:23:25;2.00;;;1.70;;
9248;SDS011;4660;41.768;26.198;2024-02-14T11:26:01;1.63;;;1.50;;
9248;SDS011;4660;41.768;26.198;2024-02-14T11:28:30;2.60;;;1.80;;
9248;SDS011;4660;41.768;26.198;2024-02-14T11:31:00;2.00;;;1.80;;
9248;SDS011;4660;41.768;26.198;2024-02-14T11:33:35;1.30;;;1.20;;
9248;SDS011;4660;41.768;26.198;2024-02-14T11:36:07;1.53;;;1.20;;
9248;SDS011;4660;41.768;26.198;2024-02-14T11:38:35;1.40;;;1.30;;
9248;SDS011;4660;41.768;26.198;2024-02-14T11:41:01;1.50;;;1.40;;
9248;SDS011;4660;41.768;26.198;2024-02-14T11:43:28;1.60;;;1.50;;
9248;SDS011;4660;41.768;26.198;2024-02-14T11:45:54;1.60;;;1.50;;
9248;SDS011;4660;41.768;26.198;2024-02-14T11:48:20;2.93;;;2.17;;
9248;SDS011;4660;41.768;26.198;2024-02-14T11:50:48;1.20;;;1.10;;
9248;SDS011;4660;41.768;26.198;2024-02-14T11:53:17;2.40;;;2.20;;
9248;SDS011;4660;41.768;26.198;2024-02-14T11:55:44;1.43;;;1.33;;
9248;SDS011;4660;41.768;26.198;2024-02-14T11:58:12;1.70;;;1.53;;
9248;SDS011;4660;41.768;26.198;2024-02-14T12:00:42;1.60;;;1.50;;
9248;SDS011;4660;41.768;26.198;2024-02-14T12:03:10;0.97;;;0.97;;
9248;SDS011;4660;41.768;26.198;2024-02-14T12:05:48;1.47;;;1.37;;
9248;SDS011;4660;41.768;26.198;2024-02-14T12:08:15;3.80;;;1.77;;
9248;SDS011;4660;41.768;26.198;2024-02-14T12:10:45;2.83;;;2.27;;
9248;SDS011;4660;41.768;26.198;2024-02-14T12:13:19;5.80;;;2.97;;
9248;SDS011;4660;41.768;26.198;2024-02-14T12:15:47;3.23;;;2.33;;
9248;SDS011;4660;41.768;26.198;2024-02-14T12:18:14;1.90;;;1.80;;
9248;SDS011;4660;41.768;26.198;2024-02-14T12:20:42;1.57;;;1.43;;
9248;SDS011;4660;41.768;26.198;2024-02-14T12:23:14;2.83;;;2.53;;
9248;SDS011;4660;41.768;26.198;2024-02-14T12:25:44;2.70;;;2.00;;
9248;SDS011;4660;41.768;26.198;2024-02-14T12:28:18;2.37;;;2.10;;
9248;SDS011;4660;41.768;26.198;2024-02-14T12:33:15;2.90;;;2.43;;
9248;SDS011;4660;41.768;26.198;2024-02-14T12:35:45;3.03;;;2.50;;
9248;SDS011;4660;41.768;26.198;2024-02-14T12:38:12;2.03;;;1.87;;
9248;SDS011;4660;41.768;26.198;2024-02-14T12:40:40;4.20;;;2.77;;
9248;SDS011;4660;41.768;26.198;2024-02-14T12:43:07;2.20;;;1.97;;
9248;SDS011;4660;41.768;26.198;2024-02-14T12:45:34;2.27;;;1.80;;
9248;SDS011;4660;41.768;26.198;2024-02-14T12:48:00;2.13;;;1.90;;
9248;SDS011;4660;41.768;26.198;2024-02-14T12:50:26;4.40;;;2.33;;
9248;SDS011;4660;41.768;26.198;2024-02-14T12:52:51;2.43;;;2.07;;
9248;SDS011;4660;41.768;26.198;2024-02-14T12:55:17;2.40;;;1.97;;
9248;SDS011;4660;41.768;26.198;2024-02-14T12:57:44;1.43;;;1.33;;
9248;SDS011;4660;41.768;26.198;2024-02-14T13:00:11;1.80;;;1.70;;
9248;SDS011;4660;41.768;26.198;2024-02-14T13:02:36;3.30;;;2.83;;
9248;SDS011;4660;41.768;26.198;2024-02-14T13:05:05;2.83;;;2.53;;
9248;SDS011;4660;41.768;26.198;2024-02-14T13:07:32;3.77;;;3.20;;
9248;SDS011;4660;41.768;26.198;2024-02-14T13:09:59;4.13;;;2.90;;
9248;SDS011;4660;41.768;26.198;2024-02-14T13:12:25;3.53;;;2.80;;
9248;SDS011;4660;41.768;26.198;2024-02-14T13:14:51;2.90;;;2.20;;
9248;SDS011;4660;41.768;26.198;2024-02-14T13:17:18;2.43;;;2.23;;
9248;SDS011;4660;41.768;26.198;2024-02-14T13:19:48;2.27;;;2.00;;
9248;SDS011;4660;41.768;26.198;2024-02-14T13:22:14;2.70;;;2.03;;
9248;SDS011;4660;41.768;26.198;2024-02-14T13:24:41;2.27;;;1.60;;
9248;SDS011;4660;41.768;26.198;2024-02-14T13:27:07;3.73;;;1.47;;
9248;SDS011;4660;41.768;26.198;2024-02-14T13:29:33;3.00;;;1.67;;
9248;SDS011;4660;41.768;26.198;2024-02-14T13:32:07;2.27;;;1.30;;
9248;SDS011;4660;41.768;26.198;2024-02-14T13:34:33;1.27;;;1.17;;
9248;SDS011;4660;41.768;26.198;2024-02-14T13:36:59;2.23;;;2.03;;
9248;SDS011;4660;41.768;26.198;2024-02-14T13:39:25;1.93;;;1.20;;
9248;SDS011;4660;41.768;26.198;2024-02-14T13:41:51;1.30;;;1.20;;
9248;SDS011;4660;41.768;26.198;2024-02-14T13:44:17;1.80;;;1.40;;
9248;SDS011;4660;41.768;26.198;2024-02-14T13:46:44;3.10;;;1.90;;
9248;SDS011;4660;41.768;26.198;2024-02-14T13:49:15;2.77;;;2.17;;
9248;SDS011;4660;41.768;26.198;2024-02-14T13:51:50;1.90;;;1.67;;
9248;SDS011;4660;41.768;26.198;2024-02-14T13:54:20;1.43;;;1.30;;
9248;SDS011;4660;41.768;26.198;2024-02-14T13:56:49;1.23;;;1.13;;
9248;SDS011;4660;41.768;26.198;2024-02-14T13:59:15;1.33;;;1.23;;
9248;SDS011;4660;41.768;26.198;2024-02-14T14:01:42;2.33;;;1.70;;
9248;SDS011;4660;41.768;26.198;2024-02-14T14:04:07;1.80;;;1.50;;
9248;SDS011;4660;41.768;26.198;2024-02-14T14:06:34;1.27;;;1.20;;
9248;SDS011;4660;41.768;26.198;2024-02-14T14:09:00;1.50;;;1.40;;
9248;SDS011;4660;41.768;26.198;2024-02-14T14:11:29;2.10;;;1.10;;
9248;SDS011;4660;41.768;26.198;2024-02-14T14:13:55;1.40;;;1.30;;
9248;SDS011;4660;41.768;26.198;2024-02-14T14:16:21;1.50;;;1.40;;
9248;SDS011;4660;41.768;26.198;2024-02-14T14:18:48;3.40;;;1.53;;
9248;SDS011;4660;41.768;26.198;2024-02-14T14:21:19;1.50;;;1.40;;
9248;SDS011;4660;41.768;26.198;2024-02-14T14:23:46;1.30;;;1.20;;
9248;SDS011;4660;41.768;26.198;2024-02-14T14:26:12;1.23;;;1.13;;
9248;SDS011;4660;41.768;26.198;2024-02-14T14:28:39;1.97;;;1.33;;
9248;SDS011;4660;41.768;26.198;2024-02-14T14:31:04;1.17;;;1.00;;
9248;SDS011;4660;41.768;26.198;2024-02-14T14:33:30;0.80;;;0.80;;
9248;SDS011;4660;41.768;26.198;2024-02-14T14:35:55;0.90;;;0.90;;
9248;SDS011;4660;41.768;26.198;2024-02-14T14:38:21;0.90;;;0.90;;
9248;SDS011;4660;41.768;26.198;2024-02-14T14:40:47;1.43;;;1.10;;
9248;SDS011;4660;41.768;26.198;2024-02-14T14:43:13;1.80;;;1.70;;
9248;SDS011;4660;41.768;26.198;2024-02-14T14:45:40;2.60;;;1.30;;
9248;SDS011;4660;41.768;26.198;2024-02-14T14:48:07;2.47;;;1.80;;
9248;SDS011;4660;41.768;26.198;2024-02-14T14:50:35;1.60;;;1.50;;
9248;SDS011;4660;41.768;26.198;2024-02-14T14:53:03;1.30;;;1.10;;
9248;SDS011;4660;41.768;26.198;2024-02-14T14:58:17;6.23;;;3.07;;
9248;SDS011;4660;41.768;26.198;2024-02-14T15:00:43;4.00;;;2.50;;
9248;SDS011;4660;41.768;26.198;2024-02-14T15:03:09;4.50;;;2.70;;